Time;durP1;ratioP1;P1;durP2;ratioP2;P2;SDS_P1;SDS_P2;PMS_P1;PMS_P2;Temp;Humidity;BMP_temperature;BMP_pressure;BME280_temperature;BME280_humidity;BME280_pressure;Samples;Min_cycle;Max_cycle;Signal;HPM_P1;HPM_P2
2022/08/27 00:00:40;;;;;;;;;;;21.60;44.00;;;;;;464256;256;1287;-49
2022/08/27 00:02:41;;;;;;;;;;;21.60;43.90;;;;;;464498;255;2163;-49
2022/08/27 00:04:43;;;;;;;;;;;21.60;44.00;;;;;;464517;255;1232;-49
2022/08/27 00:06:44;;;;;;;;;;;21.60;44.00;;;;;;464255;256;1543;-49
2022/08/27 00:08:45;;;;;;;;;;;21.60;44.00;;;;;;464319;255;1222;-49
2022/08/27 00:10:46;;;;;;;;;;;21.60;44.00;;;;;;464215;256;1200;-49
2022/08/27 00:12:48;;;;;;;;;;;21.60;44.00;;;;;;464576;255;1221;-49
2022/08/27 00:14:49;;;;;;;;;;;21.60;44.00;;;;;;464445;255;1072;-49
2022/08/27 00:16:50;;;;;;;;;;;21.60;43.90;;;;;;464681;255;1117;-50
2022/08/27 00:18:52;;;;;;;;;;;21.60;43.90;;;;;;464263;255;1282;-49
2022/08/27 00:20:53;;;;;;;;;;;21.60;44.00;;;;;;464456;255;1174;-49
2022/08/27 00:22:54;;;;;;;;;;;21.60;43.90;;;;;;464628;255;2199;-50
2022/08/27 00:24:56;;;;;;;;;;;21.60;43.90;;;;;;464466;255;1186;-49
2022/08/27 00:26:57;;;;;;;;;;;21.60;43.90;;;;;;464613;255;1278;-49
2022/08/27 00:28:58;;;;;;;;;;;21.60;43.90;;;;;;464213;256;1354;-49
2022/08/27 00:31:00;;;;;;;;;;;21.60;43.90;;;;;;464519;255;1267;-49
2022/08/27 00:33:03;;;;;;;;;;;21.60;43.90;;;;;;464120;256;1261;-49
2022/08/27 00:35:02;;;;;;;;;;;21.60;43.90;;;;;;464327;255;2205;-50
2022/08/27 00:37:05;;;;;;;;;;;21.60;43.90;;;;;;464609;255;1243;-50
2022/08/27 00:39:05;;;;;;;;;;;21.60;43.90;;;;;;464312;255;1909;-49
2022/08/27 00:41:07;;;;;;;;;;;21.60;43.90;;;;;;464593;255;1389;-49
2022/08/27 00:43:08;;;;;;;;;;;21.60;43.90;;;;;;464525;255;2203;-49
2022/08/27 00:45:10;;;;;;;;;;;21.60;43.90;;;;;;464154;256;1365;-49
2022/08/27 00:47:11;;;;;;;;;;;21.60;43.90;;;;;;464659;255;1473;-49
2022/08/27 00:49:12;;;;;;;;;;;21.60;43.80;;;;;;464265;256;1341;-49
2022/08/27 00:51:13;;;;;;;;;;;21.60;43.90;;;;;;464666;255;1140;-49
2022/08/27 00:53:15;;;;;;;;;;;21.60;43.90;;;;;;464638;255;1156;-49
2022/08/27 00:55:16;;;;;;;;;;;21.60;43.80;;;;;;464144;256;1868;-50
2022/08/27 00:57:18;;;;;;;;;;;21.60;43.80;;;;;;464688;255;1263;-50
2022/08/27 00:59:19;;;;;;;;;;;21.60;43.80;;;;;;464375;255;1401;-49
2022/08/27 01:01:20;;;;;;;;;;;21.60;43.80;;;;;;464285;256;1156;-49
2022/08/27 01:03:22;;;;;;;;;;;21.60;43.90;;;;;;464271;256;2175;-49
2022/08/27 01:05:24;;;;;;;;;;;21.60;43.90;;;;;;464266;256;1287;-50
2022/08/27 01:07:25;;;;;;;;;;;21.60;44.00;;;;;;464685;255;1339;-49
2022/08/27 01:09:26;;;;;;;;;;;21.60;44.00;;;;;;464660;255;1254;-49
2022/08/27 01:11:28;;;;;;;;;;;21.60;44.00;;;;;;464320;255;1246;-49
2022/08/27 01:13:30;;;;;;;;;;;21.60;44.00;;;;;;464553;255;1368;-48
2022/08/27 01:15:31;;;;;;;;;;;21.60;43.90;;;;;;464650;255;1975;-49
2022/08/27 01:17:32;;;;;;;;;;;21.70;43.90;;;;;;464281;255;1308;-49
2022/08/27 01:19:33;;;;;;;;;;;21.60;43.90;;;;;;464579;255;1307;-49
2022/08/27 01:21:34;;;;;;;;;;;21.60;43.90;;;;;;464475;255;1319;-49
2022/08/27 01:23:36;;;;;;;;;;;21.70;43.90;;;;;;464640;255;2214;-49
2022/08/27 01:25:37;;;;;;;;;;;21.60;43.80;;;;;;464506;255;1218;-49
2022/08/27 01:27:38;;;;;;;;;;;21.60;43.90;;;;;;464657;255;1278;-49
2022/08/27 01:29:40;;;;;;;;;;;21.60;43.80;;;;;;464217;255;1290;-49
2022/08/27 01:31:41;;;;;;;;;;;21.60;43.80;;;;;;464265;256;1266;-49
2022/08/27 01:33:42;;;;;;;;;;;21.60;43.80;;;;;;464396;255;1107;-49
2022/08/27 01:35:44;;;;;;;;;;;21.60;43.80;;;;;;464666;255;1247;-49
2022/08/27 01:37:45;;;;;;;;;;;21.60;43.80;;;;;;464264;256;1196;-49
2022/08/27 01:39:46;;;;;;;;;;;21.60;43.80;;;;;;464645;255;1221;-49
2022/08/27 01:41:48;;;;;;;;;;;21.70;43.80;;;;;;464245;256;1288;-49
2022/08/27 01:43:49;;;;;;;;;;;21.70;43.80;;;;;;464544;255;2214;-49
2022/08/27 01:45:50;;;;;;;;;;;21.60;43.70;;;;;;464565;255;1245;-49
2022/08/27 01:47:52;;;;;;;;;;;21.60;43.70;;;;;;464613;255;1415;-50
2022/08/27 01:49:53;;;;;;;;;;;21.70;43.80;;;;;;464589;255;1190;-49
2022/08/27 01:51:54;;;;;;;;;;;21.70;43.70;;;;;;464654;255;1244;-49
2022/08/27 01:53:56;;;;;;;;;;;21.60;43.70;;;;;;464232;256;1467;-50
2022/08/27 01:55:57;;;;;;;;;;;21.70;43.70;;;;;;464687;255;2403;-49
2022/08/27 01:57:58;;;;;;;;;;;21.70;43.70;;;;;;464371;255;1330;-50
2022/08/27 02:00:00;;;;;;;;;;;21.70;43.70;;;;;;464283;255;1284;-49
2022/08/27 02:02:07;;;;;;;;;;;21.70;43.70;;;;;;464697;255;1354;-49
2022/08/27 02:04:08;;;;;;;;;;;21.70;43.70;;;;;;464278;256;2218;-50
2022/08/27 02:06:10;;;;;;;;;;;21.70;43.70;;;;;;464301;256;1127;-49
2022/08/27 02:08:11;;;;;;;;;;;21.60;43.60;;;;;;464296;256;1077;-49
2022/08/27 02:10:13;;;;;;;;;;;21.70;43.70;;;;;;464195;256;1073;-49
2022/08/27 02:12:14;;;;;;;;;;;21.60;43.60;;;;;;464287;256;1342;-50
2022/08/27 02:14:15;;;;;;;;;;;21.70;43.60;;;;;;464284;255;1178;-49
2022/08/27 02:16:17;;;;;;;;;;;21.70;43.60;;;;;;464277;256;1287;-50
2022/08/27 02:18:18;;;;;;;;;;;21.70;43.60;;;;;;464654;255;1107;-49
2022/08/27 02:20:19;;;;;;;;;;;21.70;43.60;;;;;;464692;255;1172;-50
2022/08/27 02:22:20;;;;;;;;;;;21.70;43.60;;;;;;464284;255;1270;-50
2022/08/27 02:24:22;;;;;;;;;;;21.70;43.60;;;;;;464286;255;2203;-49
2022/08/27 02:26:23;;;;;;;;;;;21.70;43.50;;;;;;464434;255;1230;-49
2022/08/27 02:28:25;;;;;;;;;;;21.60;43.50;;;;;;464658;255;1555;-49
2022/08/27 02:30:26;;;;;;;;;;;21.70;43.60;;;;;;464250;256;1312;-49
2022/08/27 02:32:27;;;;;;;;;;;21.70;43.60;;;;;;464266;256;1295;-49
2022/08/27 02:34:28;;;;;;;;;;;21.70;43.60;;;;;;464656;255;1278;-50
2022/08/27 02:36:30;;;;;;;;;;;21.70;43.60;;;;;;464282;256;1344;-49
2022/08/27 02:38:31;;;;;;;;;;;21.70;43.60;;;;;;464659;255;1302;-49
2022/08/27 02:40:32;;;;;;;;;;;21.70;43.50;;;;;;464681;255;1322;-49
2022/08/27 02:42:34;;;;;;;;;;;21.70;43.60;;;;;;464633;255;2206;-49
2022/08/27 02:44:36;;;;;;;;;;;21.70;43.60;;;;;;464583;255;1315;-49
2022/08/27 02:46:37;;;;;;;;;;;21.70;43.60;;;;;;464617;255;2267;-50
2022/08/27 02:48:38;;;;;;;;;;;21.70;43.60;;;;;;464312;256;1144;-49
2022/08/27 02:50:40;;;;;;;;;;;21.70;43.60;;;;;;464715;255;1109;-49
2022/08/27 02:52:41;;;;;;;;;;;21.70;43.80;;;;;;464713;255;1246;-49
2022/08/27 02:54:42;;;;;;;;;;;21.70;43.90;;;;;;464274;256;1158;-49
2022/08/27 02:56:44;;;;;;;;;;;21.70;43.80;;;;;;464696;255;1268;-49
2022/08/27 02:58:45;;;;;;;;;;;21.70;43.80;;;;;;464408;255;1101;-49
2022/08/27 03:00:46;;;;;;;;;;;21.70;43.80;;;;;;464381;255;1301;-50
2022/08/27 03:02:48;;;;;;;;;;;21.70;43.80;;;;;;464287;256;2203;-49
2022/08/27 03:04:49;;;;;;;;;;;21.70;43.80;;;;;;464690;255;1297;-50
2022/08/27 03:06:50;;;;;;;;;;;21.70;43.70;;;;;;464500;255;1282;-50
2022/08/27 03:08:52;;;;;;;;;;;21.70;43.70;;;;;;464458;255;1086;-49
2022/08/27 03:10:53;;;;;;;;;;;21.70;43.70;;;;;;464460;255;1115;-49
2022/08/27 03:12:54;;;;;;;;;;;21.70;43.70;;;;;;464391;255;1171;-49
2022/08/27 03:14:56;;;;;;;;;;;21.70;43.70;;;;;;464577;255;1118;-49
2022/08/27 03:18:16;;;;;;;;;;;21.70;43.70;;;;;;464504;255;1183;-49
2022/08/27 03:18:59;;;;;;;;;;;21.70;43.70;;;;;;464523;255;1184;-49
2022/08/27 03:21:01;;;;;;;;;;;21.70;43.70;;;;;;464402;255;1070;-49
2022/08/27 03:23:01;;;;;;;;;;;21.70;43.60;;;;;;464630;255;2433;-49
2022/08/27 03:25:03;;;;;;;;;;;21.70;43.60;;;;;;464654;255;1225;-50
2022/08/27 03:27:04;;;;;;;;;;;21.70;43.60;;;;;;464690;255;1269;-50
2022/08/27 03:29:06;;;;;;;;;;;21.70;43.60;;;;;;464693;255;1259;-49
2022/08/27 03:31:07;;;;;;;;;;;21.70;43.60;;;;;;464364;255;2268;-49
2022/08/27 03:33:09;;;;;;;;;;;21.70;43.60;;;;;;464606;255;1421;-49
2022/08/27 03:35:10;;;;;;;;;;;21.70;43.60;;;;;;464695;255;2340;-49
2022/08/27 03:37:11;;;;;;;;;;;21.70;43.60;;;;;;464654;255;2306;-49
2022/08/27 03:39:12;;;;;;;;;;;21.70;43.60;;;;;;464343;255;1297;-50
2022/08/27 03:41:14;;;;;;;;;;;21.70;43.60;;;;;;464285;256;1757;-49
2022/08/27 03:43:15;;;;;;;;;;;21.70;43.60;;;;;;464203;256;2271;-49
2022/08/27 03:45:16;;;;;;;;;;;21.70;43.50;;;;;;464468;255;1224;-49
2022/08/27 03:47:18;;;;;;;;;;;21.70;43.50;;;;;;464586;255;1326;-49
2022/08/27 03:49:19;;;;;;;;;;;21.70;43.60;;;;;;464674;255;1312;-49
2022/08/27 03:51:20;;;;;;;;;;;21.70;43.50;;;;;;464319;255;1330;-49
2022/08/27 03:53:22;;;;;;;;;;;21.70;43.50;;;;;;464675;255;1166;-49
2022/08/27 03:55:23;;;;;;;;;;;21.70;43.50;;;;;;464306;255;1233;-49
2022/08/27 03:57:25;;;;;;;;;;;21.70;43.40;;;;;;464197;256;1232;-50
2022/08/27 03:59:26;;;;;;;;;;;21.70;43.50;;;;;;464668;255;1086;-49
2022/08/27 04:01:28;;;;;;;;;;;21.70;43.50;;;;;;464361;255;1087;-50
2022/08/27 04:03:29;;;;;;;;;;;21.70;43.40;;;;;;464496;255;2331;-50
2022/08/27 04:05:30;;;;;;;;;;;21.70;43.50;;;;;;464684;255;1114;-49
2022/08/27 04:07:32;;;;;;;;;;;21.70;43.50;;;;;;464702;255;1061;-50
2022/08/27 04:09:33;;;;;;;;;;;21.70;43.40;;;;;;464181;256;1095;-49
2022/08/27 04:11:34;;;;;;;;;;;21.70;43.40;;;;;;464261;256;1242;-49
2022/08/27 04:13:36;;;;;;;;;;;21.70;43.40;;;;;;464673;255;1255;-49
2022/08/27 04:15:37;;;;;;;;;;;21.70;43.40;;;;;;464258;256;1282;-49
2022/08/27 04:17:38;;;;;;;;;;;21.70;43.40;;;;;;464392;255;1272;-49
2022/08/27 04:19:39;;;;;;;;;;;21.70;43.40;;;;;;464669;255;1260;-49
2022/08/27 04:21:41;;;;;;;;;;;21.70;43.40;;;;;;464169;255;1303;-49
2022/08/27 04:23:42;;;;;;;;;;;21.70;43.40;;;;;;464579;255;2226;-50
2022/08/27 04:25:44;;;;;;;;;;;21.70;43.40;;;;;;464414;255;1234;-49
2022/08/27 04:27:45;;;;;;;;;;;21.70;43.40;;;;;;464401;255;1263;-50
2022/08/27 04:29:46;;;;;;;;;;;21.70;43.40;;;;;;464569;255;1369;-49
2022/08/27 04:31:48;;;;;;;;;;;21.70;43.40;;;;;;464277;255;1355;-49
2022/08/27 04:33:49;;;;;;;;;;;21.70;43.40;;;;;;464204;255;1362;-49
2022/08/27 04:35:50;;;;;;;;;;;21.60;43.50;;;;;;464633;255;1444;-50
2022/08/27 04:37:52;;;;;;;;;;;21.70;43.60;;;;;;464259;256;1303;-49
2022/08/27 04:39:53;;;;;;;;;;;21.70;43.70;;;;;;464406;255;1302;-49
2022/08/27 04:41:54;;;;;;;;;;;21.70;43.60;;;;;;464600;255;1192;-49
2022/08/27 04:43:56;;;;;;;;;;;21.70;43.60;;;;;;464473;255;2213;-49
2022/08/27 04:45:57;;;;;;;;;;;21.70;43.60;;;;;;464557;255;1252;-49
2022/08/27 04:47:58;;;;;;;;;;;21.70;43.60;;;;;;464605;255;1216;-49
2022/08/27 04:50:00;;;;;;;;;;;21.70;43.60;;;;;;464690;255;1280;-50
2022/08/27 04:52:01;;;;;;;;;;;21.70;43.60;;;;;;464684;255;1305;-49
2022/08/27 04:54:02;;;;;;;;;;;21.70;43.60;;;;;;464436;255;1378;-50
2022/08/27 04:56:04;;;;;;;;;;;21.70;43.60;;;;;;464253;255;1286;-50
2022/08/27 04:58:05;;;;;;;;;;;21.70;43.50;;;;;;464289;255;1273;-50
2022/08/27 05:00:07;;;;;;;;;;;21.70;43.50;;;;;;464482;255;1556;-49
2022/08/27 05:02:15;;;;;;;;;;;21.70;43.50;;;;;;464263;255;1304;-49
2022/08/27 05:04:17;;;;;;;;;;;21.70;43.50;;;;;;464252;255;2243;-50
2022/08/27 05:06:17;;;;;;;;;;;21.70;43.50;;;;;;464218;256;2391;-49
2022/08/27 05:08:19;;;;;;;;;;;21.70;43.50;;;;;;464655;255;1373;-49
2022/08/27 05:10:20;;;;;;;;;;;21.70;43.40;;;;;;464610;255;1273;-50
2022/08/27 05:12:21;;;;;;;;;;;21.70;43.40;;;;;;464495;255;1312;-49
2022/08/27 05:14:24;;;;;;;;;;;21.70;43.40;;;;;;464632;255;1309;-49
2022/08/27 05:16:24;;;;;;;;;;;21.70;43.40;;;;;;464225;256;2603;-49
2022/08/27 05:18:25;;;;;;;;;;;21.70;43.40;;;;;;464637;255;1389;-49
2022/08/27 05:20:27;;;;;;;;;;;21.70;43.40;;;;;;464495;255;1319;-49
2022/08/27 05:22:28;;;;;;;;;;;21.70;43.40;;;;;;464487;255;1305;-49
2022/08/27 05:24:31;;;;;;;;;;;21.70;43.30;;;;;;464554;255;2167;-50
2022/08/27 05:26:31;;;;;;;;;;;21.70;43.30;;;;;;464308;255;2398;-49
2022/08/27 05:28:32;;;;;;;;;;;21.70;43.30;;;;;;464564;255;1205;-49
2022/08/27 05:30:33;;;;;;;;;;;21.70;43.30;;;;;;464290;256;1280;-50
2022/08/27 05:32:35;;;;;;;;;;;21.70;43.30;;;;;;464344;255;1233;-49
2022/08/27 05:34:36;;;;;;;;;;;21.70;43.30;;;;;;464684;255;1230;-49
2022/08/27 05:36:39;;;;;;;;;;;21.70;43.30;;;;;;464249;256;1786;-49
2022/08/27 05:38:39;;;;;;;;;;;21.70;43.30;;;;;;464668;255;2417;-50
2022/08/27 05:40:40;;;;;;;;;;;21.70;43.30;;;;;;464414;255;1718;-49
2022/08/27 05:42:42;;;;;;;;;;;21.70;43.20;;;;;;464584;255;1249;-49
2022/08/27 05:44:43;;;;;;;;;;;21.70;43.20;;;;;;464246;256;2209;-49
2022/08/27 05:46:45;;;;;;;;;;;21.70;43.20;;;;;;464503;255;1261;-49
2022/08/27 05:48:46;;;;;;;;;;;21.70;43.20;;;;;;464629;255;1205;-49
2022/08/27 05:50:47;;;;;;;;;;;21.80;43.30;;;;;;464683;255;1304;-49
2022/08/27 05:52:48;;;;;;;;;;;21.70;43.20;;;;;;464220;256;1351;-49
2022/08/27 05:54:50;;;;;;;;;;;21.70;43.20;;;;;;464250;256;1337;-50
2022/08/27 05:56:51;;;;;;;;;;;21.70;43.20;;;;;;464699;255;1324;-49
2022/08/27 06:01:12;;;;;;;;;;;21.70;43.20;;;;;;464623;257;1308;-49
2022/08/27 06:03:13;;;;;;;;;;;21.70;43.20;;;;;;464565;255;1434;-49
2022/08/27 06:05:14;;;;;;;;;;;21.70;43.20;;;;;;464271;256;2217;-50
2022/08/27 06:07:16;;;;;;;;;;;21.70;43.10;;;;;;464705;255;1271;-49
2022/08/27 06:09:17;;;;;;;;;;;21.70;43.10;;;;;;464195;255;1120;-49
2022/08/27 06:11:19;;;;;;;;;;;21.80;43.20;;;;;;464569;255;1219;-49
2022/08/27 06:13:20;;;;;;;;;;;21.70;43.20;;;;;;464673;255;1174;-49
2022/08/27 06:15:21;;;;;;;;;;;21.80;43.30;;;;;;464640;255;1223;-49
2022/08/27 06:17:23;;;;;;;;;;;21.70;43.20;;;;;;464491;255;1225;-49
2022/08/27 06:19:24;;;;;;;;;;;21.80;43.30;;;;;;464689;255;1065;-49
2022/08/27 06:21:25;;;;;;;;;;;21.70;43.30;;;;;;464354;255;1103;-49
2022/08/27 06:23:27;;;;;;;;;;;21.70;43.40;;;;;;464296;256;1235;-49
2022/08/27 06:25:30;;;;;;;;;;;21.70;43.40;;;;;;464679;255;2943;-49
2022/08/27 06:27:29;;;;;;;;;;;21.70;43.40;;;;;;464323;255;2283;-49
2022/08/27 06:29:33;;;;;;;;;;;21.70;43.30;;;;;;464293;256;1105;-49
2022/08/27 06:31:34;;;;;;;;;;;21.70;43.40;;;;;;464683;255;2188;-49
2022/08/27 06:33:33;;;;;;;;;;;21.70;43.40;;;;;;464161;256;2101;-50
2022/08/27 06:35:35;;;;;;;;;;;21.70;43.30;;;;;;464660;255;1161;-49
2022/08/27 06:37:36;;;;;;;;;;;21.70;43.30;;;;;;464531;255;1101;-49
2022/08/27 06:39:38;;;;;;;;;;;21.70;43.30;;;;;;464383;255;1095;-50
2022/08/27 06:41:39;;;;;;;;;;;21.70;43.30;;;;;;464287;256;1112;-49
2022/08/27 06:43:40;;;;;;;;;;;21.70;43.20;;;;;;464707;255;1114;-50
2022/08/27 06:45:41;;;;;;;;;;;21.70;43.30;;;;;;464405;255;2201;-49
2022/08/27 06:47:43;;;;;;;;;;;21.70;43.30;;;;;;464389;255;1206;-49
2022/08/27 06:49:44;;;;;;;;;;;21.70;43.20;;;;;;464520;255;1201;-50
2022/08/27 06:51:46;;;;;;;;;;;21.70;43.20;;;;;;464685;255;1247;-49
2022/08/27 06:53:47;;;;;;;;;;;21.70;43.20;;;;;;464670;255;1296;-49
2022/08/27 06:55:48;;;;;;;;;;;21.70;43.20;;;;;;464688;255;1429;-49
2022/08/27 06:57:50;;;;;;;;;;;21.70;43.20;;;;;;464167;256;1677;-49
2022/08/27 06:59:51;;;;;;;;;;;21.70;43.20;;;;;;464506;255;1213;-49
2022/08/27 07:01:53;;;;;;;;;;;21.70;43.20;;;;;;464646;255;1321;-49
2022/08/27 07:03:54;;;;;;;;;;;21.70;43.20;;;;;;464244;255;1297;-50
2022/08/27 07:05:55;;;;;;;;;;;21.70;43.20;;;;;;464250;255;2190;-49
2022/08/27 07:07:56;;;;;;;;;;;21.70;43.20;;;;;;464658;255;1372;-50
2022/08/27 07:09:57;;;;;;;;;;;21.70;43.10;;;;;;464217;256;1226;-49
2022/08/27 07:11:59;;;;;;;;;;;21.70;43.20;;;;;;464660;255;1236;-49
2022/08/27 07:14:00;;;;;;;;;;;21.70;43.20;;;;;;464276;256;1317;-49
2022/08/27 07:16:01;;;;;;;;;;;21.70;43.20;;;;;;464316;255;1348;-49
2022/08/27 07:18:03;;;;;;;;;;;21.70;43.10;;;;;;464167;256;1227;-49
2022/08/27 07:20:04;;;;;;;;;;;21.70;43.10;;;;;;464664;255;1299;-49
2022/08/27 07:22:06;;;;;;;;;;;21.70;43.10;;;;;;464697;255;1318;-50
2022/08/27 07:24:08;;;;;;;;;;;21.70;43.10;;;;;;464645;255;1333;-49
2022/08/27 07:26:08;;;;;;;;;;;21.70;43.10;;;;;;464676;255;2124;-49
2022/08/27 07:28:09;;;;;;;;;;;21.70;43.10;;;;;;464465;255;1103;-50
2022/08/27 07:30:12;;;;;;;;;;;21.70;43.10;;;;;;464696;255;1132;-49
2022/08/27 07:32:13;;;;;;;;;;;21.70;43.10;;;;;;464274;256;1939;-49
2022/08/27 07:34:14;;;;;;;;;;;21.70;43.10;;;;;;464198;256;1056;-49
2022/08/27 07:36:15;;;;;;;;;;;21.70;43.00;;;;;;464655;255;1256;-49
2022/08/27 07:38:17;;;;;;;;;;;21.70;43.10;;;;;;464288;256;1252;-49
2022/08/27 07:40:18;;;;;;;;;;;21.70;43.00;;;;;;464671;255;1124;-49
2022/08/27 07:44:38;;;;;;;;;;;21.70;43.00;;;;;;464642;257;2170;-49
2022/08/27 07:46:40;;;;;;;;;;;21.70;43.00;;;;;;464214;256;1250;-49
2022/08/27 07:48:41;;;;;;;;;;;21.70;43.00;;;;;;464325;255;1136;-49
2022/08/27 07:50:42;;;;;;;;;;;21.70;43.00;;;;;;464290;256;1060;-49
2022/08/27 07:52:44;;;;;;;;;;;21.70;43.00;;;;;;464565;255;1222;-50
2022/08/27 07:54:46;;;;;;;;;;;21.70;43.00;;;;;;464669;255;1121;-50
2022/08/27 07:56:46;;;;;;;;;;;21.70;43.00;;;;;;464203;256;2385;-49
2022/08/27 07:58:48;;;;;;;;;;;21.70;42.90;;;;;;464640;255;1373;-50
2022/08/27 08:00:49;;;;;;;;;;;21.70;43.00;;;;;;464650;255;1264;-50
2022/08/27 08:05:04;;;;;;;;;;;21.70;43.00;;;;;;464612;257;2179;-49
2022/08/27 08:07:04;;;;;;;;;;;21.70;43.10;;;;;;464350;255;2266;-49
2022/08/27 08:09:06;;;;;;;;;;;21.70;43.20;;;;;;464103;256;1235;-49
2022/08/27 08:11:08;;;;;;;;;;;21.70;43.20;;;;;;464194;256;1185;-49
2022/08/27 08:13:08;;;;;;;;;;;21.70;43.30;;;;;;464604;255;2174;-49
2022/08/27 08:15:10;;;;;;;;;;;21.70;43.30;;;;;;464193;256;1188;-49
2022/08/27 08:17:11;;;;;;;;;;;21.70;43.20;;;;;;464462;255;1110;-49
2022/08/27 08:19:12;;;;;;;;;;;21.70;43.10;;;;;;464207;255;1295;-49
2022/08/27 08:21:14;;;;;;;;;;;21.70;43.10;;;;;;464370;255;1215;-50
2022/08/27 08:23:15;;;;;;;;;;;21.70;43.10;;;;;;464166;256;1337;-49
2022/08/27 08:25:16;;;;;;;;;;;21.70;43.10;;;;;;464175;255;2213;-49
2022/08/27 08:27:18;;;;;;;;;;;21.70;43.10;;;;;;464583;255;1242;-49
2022/08/27 08:29:19;;;;;;;;;;;21.70;43.10;;;;;;464598;255;1190;-49
2022/08/27 08:31:22;;;;;;;;;;;21.70;43.10;;;;;;464167;256;1217;-49
2022/08/27 08:33:22;;;;;;;;;;;21.70;43.10;;;;;;464141;256;1542;-50
2022/08/27 08:35:23;;;;;;;;;;;21.70;43.00;;;;;;464668;255;1260;-49
2022/08/27 08:37:25;;;;;;;;;;;21.70;43.00;;;;;;464257;255;1287;-50
2022/08/27 08:39:26;;;;;;;;;;;21.70;43.00;;;;;;464648;255;1281;-49
2022/08/27 08:41:27;;;;;;;;;;;21.70;43.10;;;;;;464330;255;1285;-49
2022/08/27 08:43:29;;;;;;;;;;;21.70;43.00;;;;;;464679;255;1212;-49
2022/08/27 08:45:31;;;;;;;;;;;21.70;43.00;;;;;;464587;255;2170;-49
2022/08/27 08:47:32;;;;;;;;;;;21.70;43.10;;;;;;464252;256;2125;-49
2022/08/27 08:49:33;;;;;;;;;;;21.70;43.00;;;;;;464264;256;1240;-49
2022/08/27 08:51:34;;;;;;;;;;;21.70;43.10;;;;;;464259;256;1286;-49
2022/08/27 08:53:35;;;;;;;;;;;21.70;43.10;;;;;;464216;256;1217;-49
2022/08/27 08:55:37;;;;;;;;;;;21.70;43.10;;;;;;464628;255;1275;-49
2022/08/27 08:57:38;;;;;;;;;;;21.70;43.00;;;;;;464215;255;1436;-49
2022/08/27 08:59:39;;;;;;;;;;;21.70;43.00;;;;;;464674;255;1313;-49
2022/08/27 09:01:41;;;;;;;;;;;21.70;43.10;;;;;;464673;255;1323;-49
2022/08/27 09:03:42;;;;;;;;;;;21.70;43.10;;;;;;464551;255;1298;-49
2022/08/27 09:05:43;;;;;;;;;;;21.70;43.00;;;;;;464259;255;2214;-50
2022/08/27 09:07:45;;;;;;;;;;;21.70;43.00;;;;;;464257;256;1276;-49
2022/08/27 09:09:46;;;;;;;;;;;21.70;43.00;;;;;;464387;255;1228;-49
2022/08/27 09:11:48;;;;;;;;;;;21.70;43.00;;;;;;464653;255;1233;-49
2022/08/27 09:13:49;;;;;;;;;;;21.70;43.00;;;;;;464251;256;2505;-49
2022/08/27 09:15:50;;;;;;;;;;;21.70;43.00;;;;;;464260;256;1191;-49
2022/08/27 09:17:51;;;;;;;;;;;21.60;43.00;;;;;;464266;256;1207;-49
2022/08/27 09:19:53;;;;;;;;;;;21.70;43.00;;;;;;464362;255;1221;-49
2022/08/27 09:21:54;;;;;;;;;;;21.70;43.00;;;;;;464263;255;1200;-49
2022/08/27 09:23:57;;;;;;;;;;;21.70;43.00;;;;;;464182;256;1070;-48
2022/08/27 09:25:58;;;;;;;;;;;21.70;43.00;;;;;;464570;255;2198;-50
2022/08/27 09:27:59;;;;;;;;;;;21.70;43.00;;;;;;464277;256;1087;-49
2022/08/27 09:30:00;;;;;;;;;;;21.70;43.00;;;;;;464266;256;1232;-49
2022/08/27 09:32:02;;;;;;;;;;;21.70;43.00;;;;;;464279;256;1131;-49
2022/08/27 09:34:03;;;;;;;;;;;21.70;42.90;;;;;;464449;255;1552;-49
2022/08/27 09:36:04;;;;;;;;;;;21.70;42.90;;;;;;464237;256;1252;-49
2022/08/27 09:38:06;;;;;;;;;;;21.70;43.00;;;;;;464461;255;1238;-49
2022/08/27 09:40:10;;;;;;;;;;;21.60;43.00;;;;;;464405;255;1413;-50
2022/08/27 09:42:08;;;;;;;;;;;21.70;43.00;;;;;;464255;256;2154;-49
2022/08/27 09:44:10;;;;;;;;;;;21.60;43.00;;;;;;464189;256;1558;-49
2022/08/27 09:46:11;;;;;;;;;;;21.60;43.00;;;;;;464311;255;2155;-49
2022/08/27 09:48:13;;;;;;;;;;;21.70;43.00;;;;;;464183;256;1443;-49
2022/08/27 09:50:14;;;;;;;;;;;21.70;43.00;;;;;;464239;255;2110;-49
2022/08/27 09:52:18;;;;;;;;;;;21.70;43.10;;;;;;464404;255;1238;-49
2022/08/27 09:54:16;;;;;;;;;;;21.70;43.20;;;;;;464261;255;2235;-49
2022/08/27 09:56:18;;;;;;;;;;;21.70;43.20;;;;;;464522;255;1244;-50
2022/08/27 09:58:19;;;;;;;;;;;21.70;43.10;;;;;;464340;255;1079;-49
2022/08/27 10:00:21;;;;;;;;;;;21.70;43.10;;;;;;464268;256;1141;-49
2022/08/27 10:02:22;;;;;;;;;;;21.70;43.10;;;;;;464674;255;1332;-49
2022/08/27 10:04:24;;;;;;;;;;;21.60;43.10;;;;;;464528;255;1208;-50
2022/08/27 10:06:25;;;;;;;;;;;21.70;43.10;;;;;;464252;256;2218;-50
2022/08/27 10:08:27;;;;;;;;;;;21.70;43.10;;;;;;464683;255;1090;-49
2022/08/27 10:10:27;;;;;;;;;;;21.70;43.10;;;;;;464144;256;2701;-50
2022/08/27 10:12:29;;;;;;;;;;;21.70;43.10;;;;;;464288;256;1148;-49
2022/08/27 10:14:30;;;;;;;;;;;21.60;43.10;;;;;;464249;256;1138;-49
2022/08/27 10:16:32;;;;;;;;;;;21.70;43.00;;;;;;464718;255;1152;-49
2022/08/27 10:18:33;;;;;;;;;;;21.60;43.00;;;;;;464297;256;1128;-49
2022/08/27 10:20:34;;;;;;;;;;;21.60;43.00;;;;;;464277;256;1276;-50
2022/08/27 10:22:35;;;;;;;;;;;21.60;43.00;;;;;;464283;255;2299;-49
2022/08/27 10:24:37;;;;;;;;;;;21.60;42.90;;;;;;464253;256;1229;-49
2022/08/27 10:26:38;;;;;;;;;;;21.70;43.00;;;;;;464231;256;2206;-49
2022/08/27 10:28:39;;;;;;;;;;;21.70;43.00;;;;;;464273;256;1393;-49
2022/08/27 10:30:41;;;;;;;;;;;21.60;43.00;;;;;;464154;256;1363;-50
2022/08/27 10:32:42;;;;;;;;;;;21.60;42.90;;;;;;464620;255;1355;-49
2022/08/27 10:34:43;;;;;;;;;;;21.70;43.00;;;;;;464489;255;1441;-49
2022/08/27 10:36:45;;;;;;;;;;;21.60;43.00;;;;;;464659;255;1318;-49
2022/08/27 10:38:46;;;;;;;;;;;21.70;43.00;;;;;;464644;255;1283;-49
2022/08/27 10:40:47;;;;;;;;;;;21.60;43.00;;;;;;464662;255;1277;-49
2022/08/27 10:42:49;;;;;;;;;;;21.60;42.90;;;;;;464659;255;1167;-49
2022/08/27 10:44:50;;;;;;;;;;;21.70;42.90;;;;;;464596;255;1211;-49
2022/08/27 10:46:51;;;;;;;;;;;21.60;42.90;;;;;;464476;255;2167;-50
2022/08/27 10:48:53;;;;;;;;;;;21.70;42.90;;;;;;464509;255;1246;-49
2022/08/27 10:50:54;;;;;;;;;;;21.60;42.90;;;;;;464260;256;1288;-48
2022/08/27 10:52:55;;;;;;;;;;;21.60;42.90;;;;;;464519;255;1313;-50
2022/08/27 10:54:57;;;;;;;;;;;21.70;42.90;;;;;;464245;256;1221;-49
2022/08/27 10:56:58;;;;;;;;;;;21.70;42.90;;;;;;464609;255;1185;-49
2022/08/27 10:58:59;;;;;;;;;;;21.70;42.90;;;;;;464642;255;1264;-50
2022/08/27 11:01:01;;;;;;;;;;;21.60;42.90;;;;;;464366;255;1188;-49
2022/08/27 11:03:02;;;;;;;;;;;21.60;42.90;;;;;;464233;256;1253;-49
2022/08/27 11:05:03;;;;;;;;;;;21.60;42.90;;;;;;464350;255;1247;-49
2022/08/27 11:07:05;;;;;;;;;;;21.60;42.90;;;;;;464261;256;2205;-49
2022/08/27 11:09:06;;;;;;;;;;;21.70;42.90;;;;;;464185;256;1307;-49
2022/08/27 11:11:07;;;;;;;;;;;21.60;42.80;;;;;;464674;255;1244;-49
2022/08/27 11:13:09;;;;;;;;;;;21.70;42.90;;;;;;464290;255;1206;-49
2022/08/27 11:15:10;;;;;;;;;;;21.70;42.80;;;;;;464521;255;1298;-49
2022/08/27 11:17:11;;;;;;;;;;;21.70;42.80;;;;;;464674;255;1297;-49
2022/08/27 11:19:13;;;;;;;;;;;21.70;42.80;;;;;;464344;255;1303;-49
2022/08/27 11:21:14;;;;;;;;;;;21.70;42.80;;;;;;464216;255;1274;-49
2022/08/27 11:23:16;;;;;;;;;;;21.70;42.80;;;;;;464524;255;1215;-50
2022/08/27 11:25:17;;;;;;;;;;;21.70;42.80;;;;;;464163;256;1366;-49
2022/08/27 11:27:18;;;;;;;;;;;21.70;42.80;;;;;;464197;256;2210;-49
2022/08/27 11:29:20;;;;;;;;;;;21.70;42.80;;;;;;464654;255;1317;-49
2022/08/27 11:31:21;;;;;;;;;;;21.70;42.80;;;;;;464121;255;1273;-50
2022/08/27 11:33:22;;;;;;;;;;;21.60;42.80;;;;;;464575;255;1326;-49
2022/08/27 11:35:24;;;;;;;;;;;21.70;42.90;;;;;;464222;256;1281;-49
2022/08/27 11:37:25;;;;;;;;;;;21.70;43.00;;;;;;464562;255;1289;-49
2022/08/27 11:39:26;;;;;;;;;;;21.70;43.00;;;;;;464269;256;1208;-49
2022/08/27 11:41:28;;;;;;;;;;;21.70;43.00;;;;;;464699;255;1304;-49
2022/08/27 11:43:29;;;;;;;;;;;21.60;43.00;;;;;;464697;255;1183;-49
2022/08/27 11:45:33;;;;;;;;;;;21.60;43.00;;;;;;464436;255;1233;-48
2022/08/27 11:47:32;;;;;;;;;;;21.60;42.90;;;;;;464474;255;2147;-49
2022/08/27 11:49:33;;;;;;;;;;;21.70;43.00;;;;;;464443;255;1233;-50
2022/08/27 11:51:34;;;;;;;;;;;21.70;42.90;;;;;;464338;255;1282;-50
2022/08/27 11:53:36;;;;;;;;;;;21.70;42.90;;;;;;464450;255;1300;-50
2022/08/27 11:55:37;;;;;;;;;;;21.70;42.90;;;;;;464680;255;1252;-49
2022/08/27 11:57:39;;;;;;;;;;;21.60;42.90;;;;;;464658;255;1257;-50
2022/08/27 11:59:42;;;;;;;;;;;21.60;42.90;;;;;;464252;256;1393;-49
2022/08/27 12:01:41;;;;;;;;;;;21.70;42.90;;;;;;464253;255;2311;-49
2022/08/27 12:03:42;;;;;;;;;;;21.70;42.90;;;;;;464170;256;1300;-49